Time;durP1;ratioP1;P1;durP2;ratioP2;P2;SDS_P1;SDS_P2;PMS_P1;PMS_P2;Temp;Humidity;BMP_temperature;BMP_pressure;BME280_temperature;BME280_humidity;BME280_pressure;Samples;Min_cycle;Max_cycle;Signal;HPM_P1;HPM_P2
2023/12/04 00:02:02;;;;;;;23.50;13.00;;;;;;;-6.19;100.00;96230.41;7397644;19;20432;-94
2023/12/04 00:04:29;;;;;;;16.87;11.60;;;;;;;-6.27;100.00;96203.31;7398903;19;20402;-94
2023/12/04 00:06:57;;;;;;;19.23;12.83;;;;;;;-5.69;100.00;96275.78;7399466;19;20396;-94
2023/12/04 00:09:24;;;;;;;27.43;13.97;;;;;;;-5.95;100.00;96245.94;7398741;19;20391;-93
2023/12/04 00:11:52;;;;;;;20.00;13.70;;;;;;;-5.62;100.00;96283.47;7398939;19;20411;-94
2023/12/04 00:14:19;;;;;;;21.07;13.20;;;;;;;-5.70;100.00;96258.09;7399148;19;20901;-95
2023/12/04 00:16:47;;;;;;;16.30;11.53;;;;;;;-5.41;100.00;96272.22;7399594;19;20378;-96
2023/12/04 00:19:14;;;;;;;19.90;12.87;;;;;;;-5.57;100.00;96240.22;7400369;19;20386;-95
2023/12/04 00:21:42;;;;;;;19.90;11.17;;;;;;;-6.10;100.00;96170.53;7399427;19;20411;-95
2023/12/04 00:24:09;;;;;;;16.50;12.00;;;;;;;-5.16;100.00;96306.41;7399153;19;20461;-95
2023/12/04 00:26:37;;;;;;;19.70;12.73;;;;;;;-5.47;100.00;96250.03;7399245;19;20503;-96
2023/12/04 00:29:04;;;;;;;24.33;13.67;;;;;;;-5.53;100.00;96227.81;7396903;19;20437;-96
2023/12/04 00:31:32;;;;;;;17.13;12.50;;;;;;;-5.50;100.00;96253.78;7398073;19;20413;-95
2023/12/04 00:34:00;;;;;;;20.67;13.37;;;;;;;-5.70;100.00;96218.00;7399724;19;20371;-95
2023/12/04 00:36:28;;;;;;;17.17;12.63;;;;;;;-5.11;100.00;96295.63;7396666;19;20871;-95
2023/12/04 00:38:55;;;;;;;18.67;13.40;;;;;;;-5.94;100.00;96188.00;7397172;19;20390;-95
2023/12/04 00:41:22;;;;;;;21.77;15.27;;;;;;;-5.17;100.00;96293.84;7397005;19;20418;-94
2023/12/04 00:43:50;;;;;;;19.57;12.17;;;;;;;-5.69;100.00;96209.34;7397542;19;20381;-94
2023/12/04 00:46:18;;;;;;;20.23;13.00;;;;;;;-5.26;100.00;96279.69;7398690;19;20375;-94
2023/12/04 00:48:46;;;;;;;20.73;14.77;;;;;;;-6.21;100.00;96128.47;7398238;19;20408;-94
2023/12/04 00:51:14;;;;;;;19.40;12.17;;;;;;;-5.42;100.00;96248.44;7397095;19;20405;-94
2023/12/04 00:53:41;;;;;;;23.93;14.97;;;;;;;-6.02;100.00;96148.13;7397673;19;20687;-95
2023/12/04 00:56:09;;;;;;;20.77;12.40;;;;;;;-5.50;100.00;96222.31;7397646;19;20387;-94
2023/12/04 00:58:36;;;;;;;19.97;13.00;;;;;;;-6.04;100.00;96132.22;7397242;19;20370;-95
2023/12/04 01:01:03;;;;;;;19.17;12.73;;;;;;;-6.23;100.00;96094.72;7397412;19;20402;-94
2023/12/04 01:03:32;;;;;;;19.20;12.77;;;;;;;-6.13;100.00;96094.31;7397917;19;20374;-95
2023/12/04 01:06:00;;;;;;;21.40;13.93;;;;;;;-5.81;100.00;96121.56;7397513;19;20494;-94
2023/12/04 01:08:27;;;;;;;23.43;14.40;;;;;;;-5.66;100.00;96145.06;7397246;19;20458;-93
2023/12/04 01:10:58;;;;;;;19.37;13.47;;;;;;;-4.72;100.00;96302.38;7397330;19;20485;-93
2023/12/04 01:13:26;;;;;;;26.50;13.77;;;;;;;-4.93;100.00;96218.22;7398948;19;20357;-96
2023/12/04 01:15:54;;;;;;;21.10;14.47;;;;;;;-5.16;100.00;96228.91;7397148;19;20752;-94
2023/12/04 01:18:21;;;;;;;22.70;15.00;;;;;;;-4.86;100.00;96260.69;7397188;19;20384;-94
2023/12/04 01:20:49;;;;;;;20.13;14.87;;;;;;;-4.98;100.00;96235.94;7396515;19;20413;-95
2023/12/04 01:23:16;;;;;;;18.90;14.17;;;;;;;-5.63;100.00;96128.56;7397190;19;20870;-94
2023/12/04 01:25:44;;;;;;;22.47;14.07;;;;;;;-4.96;100.00;96226.31;7396838;19;20883;-93
2023/12/04 01:28:11;;;;;;;25.27;15.57;;;;;;;-5.75;100.00;96109.75;7395647;19;20390;-95
2023/12/04 01:30:39;;;;;;;20.47;14.20;;;;;;;-5.42;100.00;96184.53;7396008;19;20407;-94
2023/12/04 01:33:08;;;;;;;21.87;15.03;;;;;;;-5.52;100.00;96138.16;7396812;19;20366;-94
2023/12/04 01:35:35;;;;;;;21.60;14.73;;;;;;;-5.66;100.00;96118.72;7396539;19;20412;-95
2023/12/04 01:38:03;;;;;;;22.30;14.30;;;;;;;-5.50;100.00;96151.53;7396226;19;20399;-94
2023/12/04 01:40:30;;;;;;;21.13;14.80;;;;;;;-5.52;100.00;96122.03;7394512;19;20382;-93
2023/12/04 01:42:58;;;;;;;23.77;14.60;;;;;;;-5.48;100.00;96128.31;7398013;19;20374;-94
2023/12/04 01:45:25;;;;;;;17.33;12.70;;;;;;;-5.20;100.00;96151.81;7396216;19;20366;-94
2023/12/04 01:47:53;;;;;;;20.17;15.30;;;;;;;-4.51;100.00;96245.00;7397494;19;20382;-94
2023/12/04 01:50:21;;;;;;;27.13;17.23;;;;;;;-4.88;100.00;96178.22;7403750;19;20445;-95
2023/12/04 01:52:50;;;;;;;22.27;15.30;;;;;;;-5.63;100.00;96068.03;7403801;19;20394;-93
2023/12/04 01:55:18;;;;;;;24.13;15.90;;;;;;;-5.55;100.00;96071.31;7403621;19;20398;-94
2023/12/04 01:57:45;;;;;;;22.17;15.27;;;;;;;-5.61;100.00;96077.25;7403511;19;20677;-95
2023/12/04 02:00:14;;;;;;;20.13;14.83;;;;;;;-5.02;100.00;96168.25;7401148;19;20378;-94
2023/12/04 02:02:42;;;;;;;19.63;12.90;;;;;;;-5.53;100.00;96066.78;7403626;19;20366;-95
2023/12/04 02:05:11;;;;;;;23.00;14.30;;;;;;;-4.97;100.00;96141.09;7402915;19;20377;-94
2023/12/04 02:07:41;;;;;;;21.33;13.80;;;;;;;-5.22;100.00;96105.22;7403510;19;20393;-94
2023/12/04 02:10:08;;;;;;;24.20;14.87;;;;;;;-5.16;100.00;96099.25;7403173;19;20398;-95
2023/12/04 02:12:36;;;;;;;20.23;13.70;;;;;;;-5.69;100.00;96022.81;7399910;19;20902;-94
2023/12/04 02:15:04;;;;;;;24.20;15.40;;;;;;;-4.90;100.00;96120.56;7403154;19;20384;-93
2023/12/04 02:17:33;;;;;;;18.97;12.63;;;;;;;-4.75;100.00;96139.00;7402682;19;20689;-94
2023/12/04 02:20:01;;;;;;;24.53;14.93;;;;;;;-4.97;100.00;96119.84;7402728;19;20375;-94
2023/12/04 02:22:28;;;;;;;20.80;13.47;;;;;;;-5.04;100.00;96089.94;7400077;19;20718;-94
2023/12/04 02:24:59;;;;;;;19.53;13.87;;;;;;;-5.93;100.00;95950.25;7404275;19;20362;-94
2023/12/04 02:27:32;;;;;;;22.37;13.23;;;;;;;-5.41;100.00;96025.03;7402152;19;20424;-94
2023/12/04 02:30:02;;;;;;;19.43;13.87;;;;;;;-5.06;100.00;96065.56;7403016;19;20411;-94
2023/12/04 02:32:35;;;;;;;17.60;12.20;;;;;;;-5.58;100.00;95966.94;7400503;19;20431;-94
2023/12/04 02:35:06;;;;;;;19.10;14.20;;;;;;;-4.70;100.00;96093.09;7401948;19;20450;-94
2023/12/04 02:37:34;;;;;;;20.23;12.90;;;;;;;-5.24;100.00;96053.50;7401767;19;20378;-94
2023/12/04 02:40:02;;;;;;;26.57;13.77;;;;;;;-5.98;100.00;95926.31;7400958;19;20382;-94
2023/12/04 02:42:30;;;;;;;19.47;14.13;;;;;;;-5.52;100.00;96007.00;7399505;19;20457;-95
2023/12/04 02:44:58;;;;;;;18.33;14.30;;;;;;;-6.33;100.00;95844.19;7402121;19;20363;-93
2023/12/04 02:47:26;;;;;;;20.43;14.43;;;;;;;-4.63;100.00;96139.91;7401595;19;20458;-95
2023/12/04 02:49:53;;;;;;;21.27;15.00;;;;;;;-4.53;100.00;96160.72;7402436;19;20361;-95
2023/12/04 02:52:22;;;;;;;22.70;13.40;;;;;;;-5.05;100.00;96075.59;7400255;19;20418;-94
2023/12/04 02:54:52;;;;;;;21.27;14.87;;;;;;;-5.36;100.00;96025.22;7402164;19;20358;-94
2023/12/04 02:57:20;;;;;;;19.17;13.80;;;;;;;-5.74;100.00;95976.69;7402827;19;20386;-95
2023/12/04 02:59:58;;;;;;;17.93;12.03;;;;;;;-5.20;100.00;96081.97;7400201;19;20386;-92
2023/12/04 03:02:33;;;;;;;20.23;12.80;;;;;;;-5.44;100.00;96038.25;7400105;19;20416;-94
2023/12/04 03:05:06;;;;;;;18.60;12.37;;;;;;;-5.33;100.00;96062.38;7403048;19;20359;-94
2023/12/04 03:07:33;;;;;;;23.93;14.33;;;;;;;-6.12;100.00;95946.03;7402822;19;20361;-94
2023/12/04 03:10:03;;;;;;;16.60;13.53;;;;;;;-5.35;100.00;96067.69;7401988;19;20403;-95
2023/12/04 03:12:35;;;;;;;21.07;14.40;;;;;;;-5.26;100.00;96087.91;7400778;19;20490;-95
2023/12/04 03:15:11;;;;;;;17.20;13.63;;;;;;;-5.63;100.00;96051.91;7402496;19;20363;-94
2023/12/04 03:17:40;;;;;;;18.80;13.60;;;;;;;-5.48;100.00;96067.75;7402828;19;20371;-94
2023/12/04 03:20:17;;;;;;;20.00;13.33;;;;;;;-5.68;100.00;96042.28;7401493;19;20376;-95
2023/12/04 03:22:57;;;;;;;19.30;12.90;;;;;;;-5.69;100.00;96027.16;7402358;19;20378;-93
2023/12/04 03:25:30;;;;;;;21.70;13.00;;;;;;;-5.38;100.00;96060.44;7402855;19;20430;-94
2023/12/04 03:28:00;;;;;;;22.70;11.80;;;;;;;-5.93;100.00;95995.44;7400260;19;20408;-95
2023/12/04 03:30:27;;;;;;;21.13;13.20;;;;;;;-5.02;100.00;96117.09;7400525;19;20444;-94
2023/12/04 03:32:55;;;;;;;16.63;11.87;;;;;;;-5.67;100.00;96020.84;7400114;19;20410;-95
2023/12/04 03:35:22;;;;;;;18.13;11.87;;;;;;;-5.49;100.00;96052.63;7400183;19;20864;-93
2023/12/04 03:37:49;;;;;;;15.77;11.60;;;;;;;-6.30;100.00;95939.03;7400035;19;20395;-94
2023/12/04 03:40:17;;;;;;;16.13;11.60;;;;;;;-5.17;100.00;96102.03;7399273;19;20378;-95
2023/12/04 03:42:44;;;;;;;19.07;12.07;;;;;;;-5.58;100.00;96036.72;7400372;19;20450;-94
2023/12/04 03:45:12;;;;;;;19.93;13.57;;;;;;;-5.80;100.00;96009.91;7399596;19;20386;-94
2023/12/04 03:47:39;;;;;;;15.30;12.80;;;;;;;-5.72;100.00;96018.16;7400294;19;20403;-93
2023/12/04 03:50:07;;;;;;;17.37;10.93;;;;;;;-5.53;100.00;96036.13;7399535;19;20374;-93
2023/12/04 03:52:34;;;;;;;18.97;12.73;;;;;;;-6.78;100.00;95848.50;7398018;19;20409;-94
2023/12/04 03:55:03;;;;;;;15.60;11.50;;;;;;;-6.47;100.00;95909.81;7399659;19;20448;-94
2023/12/04 03:57:30;;;;;;;17.90;11.77;;;;;;;-6.38;100.00;95943.56;7400235;19;20390;-94
2023/12/04 03:59:58;;;;;;;19.30;11.93;;;;;;;-5.41;100.00;96093.28;7399426;19;20393;-93
2023/12/04 04:02:25;;;;;;;14.13;10.27;;;;;;;-5.84;100.00;96016.44;7397343;19;20406;-94
2023/12/04 04:04:53;;;;;;;20.10;13.17;;;;;;;-5.32;100.00;96076.72;7399284;19;20376;-93
2023/12/04 04:07:20;;;;;;;17.10;12.53;;;;;;;-6.30;100.00;95925.47;7400134;19;20378;-94
2023/12/04 04:09:48;;;;;;;17.30;11.90;;;;;;;-6.03;100.00;95972.13;7399510;19;20382;-94
2023/12/04 04:12:15;;;;;;;15.57;11.43;;;;;;;-5.84;100.00;95984.00;7394968;19;20418;-94
2023/12/04 04:14:42;;;;;;;17.10;11.03;;;;;;;-5.62;100.00;96035.59;7399297;19;20371;-93
2023/12/04 04:17:10;;;;;;;21.53;11.97;;;;;;;-5.76;100.00;96024.66;7398691;19;20916;-93
2023/12/04 04:19:37;;;;;;;19.70;14.10;;;;;;;-5.86;100.00;96001.31;7399843;19;20370;-94
2023/12/04 04:22:04;;;;;;;20.97;13.20;;;;;;;-6.15;100.00;95968.63;7397870;19;20414;-93
2023/12/04 04:24:31;;;;;;;20.80;13.17;;;;;;;-5.95;100.00;95998.19;7398432;19;20383;-93
2023/12/04 04:26:59;;;;;;;22.83;14.67;;;;;;;-6.36;100.00;95944.13;7398433;19;20385;-94
2023/12/04 04:29:26;;;;;;;19.73;12.90;;;;;;;-5.87;100.00;96001.53;7396313;19;20484;-94
2023/12/04 04:31:54;;;;;;;19.13;12.50;;;;;;;-5.57;100.00;96053.63;7396581;19;20894;-93
2023/12/04 04:34:22;;;;;;;18.80;11.63;;;;;;;-5.72;100.00;96025.81;7398169;19;20385;-94
2023/12/04 04:36:51;;;;;;;20.97;14.17;;;;;;;-5.42;100.00;96089.16;7397999;19;20374;-93
2023/12/04 04:39:18;;;;;;;18.30;13.53;;;;;;;-5.56;100.00;96062.09;7398483;19;20888;-94
2023/12/04 04:41:46;;;;;;;19.10;12.97;;;;;;;-6.25;100.00;95974.16;7396117;19;20420;-94
2023/12/04 04:44:13;;;;;;;20.50;12.90;;;;;;;-6.67;100.00;95898.91;7398566;19;20382;-94
2023/12/04 04:46:40;;;;;;;16.97;11.60;;;;;;;-6.38;100.00;95946.09;7398190;19;20478;-94
2023/12/04 04:49:07;;;;;;;20.17;12.97;;;;;;;-6.90;100.00;95894.22;7397685;19;20395;-94
2023/12/04 04:51:35;;;;;;;19.93;13.33;;;;;;;-6.12;100.00;96011.63;7397613;19;20425;-94
2023/12/04 04:54:03;;;;;;;19.10;13.00;;;;;;;-6.38;100.00;95971.63;7397517;19;20393;-95
2023/12/04 04:56:31;;;;;;;18.57;13.33;;;;;;;-5.72;100.00;96061.59;7398342;19;20457;-93
2023/12/04 04:58:58;;;;;;;19.70;12.00;;;;;;;-6.27;100.00;95979.47;7398141;19;20944;-94
2023/12/04 05:01:25;;;;;;;19.50;13.57;;;;;;;-6.78;100.00;95902.06;7395675;19;20406;-94
2023/12/04 05:03:53;;;;;;;20.10;12.97;;;;;;;-6.35;100.00;95963.56;7397038;19;20871;-94
2023/12/04 05:06:22;;;;;;;18.83;12.00;;;;;;;-5.89;100.00;96026.47;7397230;19;20879;-94
2023/12/04 05:08:52;;;;;;;17.13;12.57;;;;;;;-6.45;100.00;95947.88;7397093;19;20394;-93
2023/12/04 05:11:20;;;;;;;20.40;13.40;;;;;;;-6.88;100.00;95900.69;7396507;19;20430;-94
2023/12/04 05:13:47;;;;;;;18.13;11.07;;;;;;;-6.60;100.00;95930.25;7397138;19;20378;-93
2023/12/04 05:16:15;;;;;;;22.87;13.90;;;;;;;-6.62;100.00;95929.69;7396782;19;20383;-94
2023/12/04 05:18:42;;;;;;;18.23;13.20;;;;;;;-6.17;100.00;96019.91;7396699;19;20381;-94
2023/12/04 05:21:10;;;;;;;17.33;12.20;;;;;;;-6.79;100.00;95914.03;7396024;19;20394;-94
2023/12/04 05:23:38;;;;;;;14.53;11.57;;;;;;;-6.82;100.00;95916.97;7402476;19;20449;-93
2023/12/04 05:26:06;;;;;;;21.10;12.67;;;;;;;-6.06;100.00;96028.69;7404788;19;20393;-94
2023/12/04 05:28:34;;;;;;;17.90;13.00;;;;;;;-6.62;100.00;95950.09;7402533;19;20405;-95
2023/12/04 05:31:02;;;;;;;16.53;12.40;;;;;;;-7.14;100.00;95870.94;7402897;19;20399;-94
2023/12/04 05:33:29;;;;;;;18.80;11.27;;;;;;;-6.64;100.00;95957.94;7404322;19;20505;-94
2023/12/04 05:35:57;;;;;;;21.30;12.23;;;;;;;-6.79;100.00;95928.56;7404013;19;20672;-94
2023/12/04 05:38:24;;;;;;;17.63;12.73;;;;;;;-7.03;100.00;95922.28;7403938;19;20385;-94
2023/12/04 05:40:51;;;;;;;20.17;12.67;;;;;;;-6.93;100.00;95943.88;7402181;19;20430;-96
2023/12/04 05:43:19;;;;;;;20.30;11.93;;;;;;;-6.93;100.00;95936.22;7404032;19;20933;-94
2023/12/04 05:45:46;;;;;;;16.30;12.70;;;;;;;-6.55;100.00;95986.59;7404080;19;20372;-94
2023/12/04 05:48:17;;;;;;;18.03;12.40;;;;;;;-7.07;100.00;95908.38;7404113;19;20403;-94
2023/12/04 05:50:44;;;;;;;19.70;12.00;;;;;;;-7.01;100.00;95917.78;7402710;19;20403;-94
2023/12/04 05:53:11;;;;;;;18.63;13.00;;;;;;;-6.58;100.00;95975.03;7403931;19;20401;-93
2023/12/04 05:55:39;;;;;;;17.93;12.60;;;;;;;-7.02;100.00;95903.47;7403882;19;20395;-94
2023/12/04 05:58:06;;;;;;;21.53;14.80;;;;;;;-6.96;100.00;95921.31;7403356;19;20376;-94
2023/12/04 06:00:33;;;;;;;19.63;12.57;;;;;;;-7.46;100.00;95831.81;7402673;19;20421;-95
2023/12/04 06:03:01;;;;;;;26.30;12.63;;;;;;;-6.88;100.00;95917.75;7403098;19;20405;-96
2023/12/04 06:05:28;;;;;;;16.57;12.23;;;;;;;-7.21;100.00;95859.97;7403669;19;20374;-94
2023/12/04 06:07:57;;;;;;;20.13;12.50;;;;;;;-6.72;100.00;95922.44;7403393;19;20410;-94
2023/12/04 06:10:25;;;;;;;15.67;13.47;;;;;;;-6.65;100.00;95928.31;7402577;19;20400;-93
2023/12/04 06:12:54;;;;;;;19.67;13.37;;;;;;;-6.65;100.00;95924.97;7402735;19;20887;-95
2023/12/04 06:15:22;;;;;;;16.47;12.50;;;;;;;-6.84;100.00;95894.22;7402969;19;20444;-96
2023/12/04 06:17:49;;;;;;;23.00;13.07;;;;;;;-6.93;100.00;95833.44;7406898;19;20706;-96
2023/12/04 06:20:18;;;;;;;24.20;15.27;;;;;;;-6.07;100.00;95976.81;7402863;19;20378;-96
2023/12/04 06:22:46;;;;;;;20.37;13.40;;;;;;;-6.45;100.00;95895.09;7406344;19;20389;-95
2023/12/04 06:25:14;;;;;;;20.83;13.87;;;;;;;-6.33;100.00;95906.22;7404046;19;20381;-94
2023/12/04 06:27:42;;;;;;;18.27;13.00;;;;;;;-7.59;100.00;95759.72;7401860;19;20409;-94
2023/12/04 06:30:10;;;;;;;23.10;13.47;;;;;;;-6.09;100.00;95981.34;7402262;19;20402;-94
2023/12/04 06:32:37;;;;;;;21.10;14.07;;;;;;;-6.62;100.00;95902.41;7400146;19;20385;-94
2023/12/04 06:35:06;;;;;;;16.00;11.87;;;;;;;-6.12;100.00;95937.56;7400265;19;20375;-93
2023/12/04 06:37:34;;;;;;;19.07;12.77;;;;;;;-6.12;100.00;95902.59;7402166;19;20406;-94
2023/12/04 06:40:02;;;;;;;23.73;12.67;;;;;;;-6.88;100.00;95833.59;7406357;19;20396;-93
2023/12/04 06:42:30;;;;;;;18.27;14.37;;;;;;;-6.74;100.00;95847.09;7407356;19;20403;-95
2023/12/04 06:44:57;;;;;;;19.63;12.50;;;;;;;-7.41;100.00;95742.03;7405592;19;20365;-93
2023/12/04 06:47:25;;;;;;;15.97;12.30;;;;;;;-6.41;100.00;95903.13;7405021;19;20426;-93
2023/12/04 06:49:53;;;;;;;21.47;14.40;;;;;;;-6.46;100.00;95839.91;7405145;19;20377;-93
2023/12/04 06:52:20;;;;;;;19.73;13.57;;;;;;;-6.12;100.00;95958.00;7404003;19;20436;-94
2023/12/04 06:54:47;;;;;;;22.20;14.13;;;;;;;-6.43;100.00;95872.72;7404126;19;20473;-94
2023/12/04 06:57:17;;;;;;;18.90;11.03;;;;;;;-6.03;100.00;95926.94;7405919;19;20359;-92
2023/12/04 06:59:46;;;;;;;22.70;14.17;;;;;;;-6.55;100.00;95880.22;7404354;19;20399;-93
2023/12/04 07:02:13;;;;;;;20.27;11.13;;;;;;;-7.27;100.00;95758.03;7403105;19;20448;-94
2023/12/04 07:04:41;;;;;;;21.30;12.63;;;;;;;-6.91;100.00;95832.25;7403726;19;20409;-94
2023/12/04 07:07:08;;;;;;;18.73;11.43;;;;;;;-7.20;100.00;95800.38;7404247;19;20374;-94
2023/12/04 07:09:47;;;;;;;19.10;14.37;;;;;;;-7.17;100.00;95787.22;7401582;19;20470;-94
2023/12/04 07:12:20;;;;;;;20.30;13.97;;;;;;;-6.41;100.00;95924.34;7399900;19;20675;-93
2023/12/04 07:14:47;;;;;;;19.20;12.17;;;;;;;-8.18;100.00;95646.81;7401210;19;20380;-93
2023/12/04 07:17:15;;;;;;;18.73;13.50;;;;;;;-6.40;100.00;95895.28;7400292;19;20442;-93
2023/12/04 07:19:42;;;;;;;19.43;13.33;;;;;;;-6.40;100.00;95885.06;7402453;19;20365;-94
2023/12/04 07:22:10;;;;;;;22.87;14.43;;;;;;;-7.35;100.00;95760.84;7398770;19;20424;-92
2023/12/04 07:24:37;;;;;;;24.13;14.00;;;;;;;-6.47;100.00;95858.00;7400239;19;20380;-93
2023/12/04 07:27:05;;;;;;;15.67;11.77;;;;;;;-6.74;100.00;95821.59;7401019;19;20385;-92
2023/12/04 07:29:32;;;;;;;18.30;13.90;;;;;;;-6.77;100.00;95827.88;7400152;19;20464;-92
2023/12/04 07:31:59;;;;;;;19.40;10.90;;;;;;;-6.64;100.00;95832.94;7399182;19;20399;-94
2023/12/04 07:34:28;;;;;;;16.87;11.97;;;;;;;-6.40;100.00;95844.22;7400593;19;20373;-94
2023/12/04 07:36:55;;;;;;;15.03;11.00;;;;;;;-5.80;100.00;95925.63;7400124;19;20383;-93
2023/12/04 07:39:23;;;;;;;22.63;14.20;;;;;;;-6.03;100.00;95877.63;7400269;19;20453;-93
2023/12/04 07:41:50;;;;;;;20.40;13.30;;;;;;;-6.00;100.00;95889.97;7398965;19;20431;-93
2023/12/04 07:44:17;;;;;;;23.37;13.90;;;;;;;-6.85;100.00;95742.22;7399651;19;20380;-93
2023/12/04 07:46:46;;;;;;;20.67;13.87;;;;;;;-7.29;100.00;95688.69;7400527;19;20411;-93
2023/12/04 07:49:13;;;;;;;17.13;10.97;;;;;;;-6.85;100.00;95723.53;7400276;19;20386;-93
2023/12/04 07:51:41;;;;;;;22.00;13.90;;;;;;;-6.49;100.00;95785.97;7399388;19;20466;-93
2023/12/04 07:54:09;;;;;;;17.23;11.90;;;;;;;-5.85;100.00;95862.38;7400422;19;20382;-94
2023/12/04 07:56:36;;;;;;;16.10;11.00;;;;;;;-5.96;100.00;95873.25;7400849;19;20386;-93
2023/12/04 07:59:06;;;;;;;19.70;11.80;;;;;;;-5.86;100.00;95854.94;7400756;19;20398;-92
2023/12/04 08:01:34;;;;;;;15.83;10.90;;;;;;;-5.56;100.00;95873.75;7398463;19;20735;-94
2023/12/04 08:04:02;;;;;;;17.00;11.67;;;;;;;-5.74;100.00;95836.19;7400202;19;20377;-92
2023/12/04 08:06:29;;;;;;;16.77;11.33;;;;;;;-6.29;100.00;95710.88;7399586;19;20386;-93
2023/12/04 08:08:57;;;;;;;12.23;10.93;;;;;;;-5.83;100.00;95778.66;7399681;19;20438;-93
2023/12/04 08:11:25;;;;;;;19.23;12.87;;;;;;;-5.28;100.00;95837.53;7398807;19;20421;-92
2023/12/04 08:13:52;;;;;;;19.17;12.80;;;;;;;-4.79;100.00;95904.97;7399229;19;20394;-93
2023/12/04 08:16:21;;;;;;;14.60;12.40;;;;;;;-4.93;100.00;95842.13;7399726;19;20369;-93
2023/12/04 08:18:48;;;;;;;21.80;14.30;;;;;;;-5.34;100.00;95815.38;7400264;19;20371;-93
2023/12/04 08:21:18;;;;;;;17.20;11.80;;;;;;;-5.18;100.00;95821.72;7397936;19;20776;-93
2023/12/04 08:23:47;;;;;;;17.80;11.67;;;;;;;-4.65;100.00;95880.81;7398744;19;20392;-96
2023/12/04 08:26:24;;;;;;;17.07;12.70;;;;;;;-4.95;100.00;95827.00;7400171;19;20386;-94
2023/12/04 08:28:52;;;;;;;21.67;11.73;;;;;;;-4.56;100.00;95886.44;7398066;19;20795;-95
2023/12/04 08:31:20;;;;;;;18.30;11.67;;;;;;;-5.48;100.00;95755.16;7401078;19;20394;-95
2023/12/04 08:33:47;;;;;;;13.23;10.87;;;;;;;-5.59;100.00;95735.41;7401188;19;20871;-95
2023/12/04 08:36:15;;;;;;;18.30;11.43;;;;;;;-4.74;100.00;95859.81;7399493;19;20380;-94
2023/12/04 08:38:43;;;;;;;20.60;12.90;;;;;;;-6.39;100.00;95590.59;7401784;19;20476;-94
2023/12/04 08:41:10;;;;;;;15.47;12.00;;;;;;;-5.32;100.00;95726.47;7397996;19;20531;-94
2023/12/04 08:43:38;;;;;;;19.10;12.43;;;;;;;-5.53;100.00;95680.88;7400061;19;20884;-95
2023/12/04 08:46:05;;;;;;;15.93;11.50;;;;;;;-5.19;100.00;95720.44;7401446;19;20382;-95
2023/12/04 08:48:33;;;;;;;15.17;10.90;;;;;;;-5.09;100.00;95741.16;7401926;19;20389;-95
2023/12/04 08:51:00;;;;;;;19.67;11.60;;;;;;;-5.25;100.00;95719.50;7402368;19;20420;-95
2023/12/04 08:53:27;;;;;;;16.57;11.00;;;;;;;-5.22;100.00;95715.75;7402634;19;20458;-94
2023/12/04 08:55:57;;;;;;;20.30;10.83;;;;;;;-4.62;100.00;95795.91;7402538;19;20389;-95
2023/12/04 08:58:25;;;;;;;13.43;9.57;;;;;;;-4.10;100.00;95878.19;7401231;19;20866;-95
2023/12/04 09:00:52;;;;;;;14.03;10.37;;;;;;;-5.38;100.00;95668.50;7401315;19;20997;-93
2023/12/04 09:03:20;;;;;;;17.47;12.07;;;;;;;-5.53;100.00;95637.41;7401908;19;20402;-95
2023/12/04 09:05:57;;;;;;;18.07;11.17;;;;;;;-4.74;100.00;95777.16;7402737;19;20381;-95
2023/12/04 09:08:27;;;;;;;14.63;10.10;;;;;;;-4.85;100.00;95739.50;7402541;19;20836;-94
2023/12/04 09:11:06;;;;;;;15.00;10.77;;;;;;;-5.07;100.00;95705.94;7401728;19;20398;-95
2023/12/04 09:13:49;;;;;;;14.53;10.40;;;;;;;-4.40;100.00;95786.00;7399210;19;20370;-96
2023/12/04 09:16:21;;;;;;;15.87;10.30;;;;;;;-4.11;100.00;95814.38;7407035;19;20374;-96
2023/12/04 09:18:49;;;;;;;13.60;10.13;;;;;;;-3.92;100.00;95854.28;7407088;19;20390;-96
2023/12/04 09:21:16;;;;;;;12.60;8.17;;;;;;;-4.81;100.00;95723.50;7402880;19;20438;-95
2023/12/04 09:23:49;;;;;;;15.83;10.47;;;;;;;-5.07;100.00;95662.44;7398078;19;20390;-94
2023/12/04 09:26:17;;;;;;;16.77;9.73;;;;;;;-4.08;100.00;95801.91;7398436;19;20386;-94
2023/12/04 09:28:44;;;;;;;14.63;9.37;;;;;;;-4.42;100.00;95756.50;7396588;19;20414;-95
2023/12/04 09:31:11;;;;;;;12.53;8.90;;;;;;;-4.26;100.00;95774.56;7396819;19;20417;-94
2023/12/04 09:33:39;;;;;;;13.40;9.53;;;;;;;-4.61;100.00;95705.31;7398035;19;20391;-95
2023/12/04 09:36:07;;;;;;;12.60;8.80;;;;;;;-4.15;100.00;95730.28;7399065;19;20373;-94
2023/12/04 09:38:36;;;;;;;14.00;10.37;;;;;;;-4.37;100.00;95687.47;7397982;19;20457;-94
2023/12/04 09:41:06;;;;;;;13.47;10.83;;;;;;;-4.77;100.00;95670.13;7397958;19;20423;-95
2023/12/04 09:43:35;;;;;;;11.90;8.63;;;;;;;-3.41;100.00;95827.28;7396258;19;20404;-93
2023/12/04 09:46:03;;;;;;;14.53;9.77;;;;;;;-4.12;100.00;95739.31;7398774;19;20377;-95
2023/12/04 09:48:31;;;;;;;13.23;9.13;;;;;;;-4.81;100.00;95633.97;7398352;19;20375;-93
2023/12/04 09:51:00;;;;;;;13.37;9.10;;;;;;;-3.87;100.00;95798.06;7397473;19;20388;-95
2023/12/04 09:53:30;;;;;;;12.23;8.70;;;;;;;-4.04;100.00;95730.53;7398554;19;20415;-94
2023/12/04 09:56:03;;;;;;;13.33;10.47;;;;;;;-4.22;100.00;95705.75;7399891;19;20382;-95
2023/12/04 09:58:32;;;;;;;13.50;10.03;;;;;;;-4.09;100.00;95725.28;7398405;19;20458;-96
2023/12/04 10:01:01;;;;;;;15.47;9.63;;;;;;;-3.74;100.00;95743.22;7399121;19;20444;-95
2023/12/04 10:03:29;;;;;;;10.37;8.70;;;;;;;-4.23;100.00;95684.50;7397784;19;20374;-95
2023/12/04 10:05:57;;;;;;;16.63;8.97;;;;;;;-4.46;100.00;95612.75;7398788;19;20403;-96
2023/12/04 10:08:25;;;;;;;14.10;8.40;;;;;;;-3.86;100.00;95692.75;7399257;19;20383;-95
2023/12/04 10:10:52;;;;;;;13.63;9.17;;;;;;;-3.97;100.00;95662.78;7403375;19;20895;-94
2023/12/04 10:13:19;;;;;;;13.50;9.17;;;;;;;-3.73;100.00;95667.88;7406040;19;20411;-94
2023/12/04 10:16:07;;;;;;;10.37;7.73;;;;;;;-3.39;100.00;95718.34;7406293;19;20358;-95
2023/12/04 10:18:35;;;;;;;11.10;7.70;;;;;;;-4.01;100.00;95619.91;7405198;19;20389;-94
2023/12/04 10:21:02;;;;;;;12.57;9.63;;;;;;;-3.38;100.00;95729.38;7404998;19;20412;-95
2023/12/04 10:23:41;;;;;;;13.67;9.70;;;;;;;-3.87;100.00;95632.25;7402948;19;20418;-95
2023/12/04 10:26:08;;;;;;;12.10;8.70;;;;;;;-3.49;100.00;95655.81;7406189;19;20375;-94
2023/12/04 10:28:36;;;;;;;10.87;9.53;;;;;;;-2.44;100.00;95776.16;7402934;19;20408;-94
2023/12/04 10:31:06;;;;;;;13.33;9.80;;;;;;;-3.37;100.00;95639.41;7404862;19;20488;-95
2023/12/04 10:33:35;;;;;;;14.37;8.80;;;;;;;-2.81;100.00;95699.47;7404782;19;20388;-95
2023/12/04 10:36:04;;;;;;;18.07;9.30;;;;;;;-2.65;100.00;95700.53;7404975;19;20390;-95
2023/12/04 10:38:31;;;;;;;13.00;10.40;;;;;;;-3.24;100.00;95581.94;7405186;19;20367;-94
2023/12/04 10:41:13;;;;;;;14.07;9.73;;;;;;;-3.56;100.00;95535.44;7409018;19;20708;-94
2023/12/04 10:43:48;;;;;;;11.90;8.83;;;;;;;-3.04;100.00;95607.16;7403351;19;20412;-95
2023/12/04 10:46:28;;;;;;;12.77;8.67;;;;;;;-2.85;100.00;95633.41;7404638;19;20376;-93
2023/12/04 10:48:58;;;;;;;14.10;9.63;;;;;;;-2.52;100.00;95658.38;7405905;19;20362;-94
2023/12/04 10:51:28;;;;;;;12.00;8.20;;;;;;;-2.94;100.00;95597.06;7403094;19;20424;-94
2023/12/04 10:53:55;;;;;;;12.63;11.33;;;;;;;-2.82;100.00;95620.91;7403163;19;20414;-94
2023/12/04 10:56:33;;;;;;;13.53;8.90;;;;;;;-2.86;100.00;95578.72;7404768;19;20381;-95
2023/12/04 10:59:02;;;;;;;11.23;9.30;;;;;;;-1.68;100.00;95746.56;7404616;19;20411;-94
2023/12/04 11:01:31;;;;;;;13.03;9.23;;;;;;;-2.44;100.00;95634.88;7403010;19;20675;-96
2023/12/04 11:04:02;;;;;;;12.13;8.97;;;;;;;-1.67;100.00;95745.53;7401297;19;20399;-94
2023/12/04 11:06:31;;;;;;;11.60;9.43;;;;;;;-2.16;100.00;95670.78;7403836;19;20388;-96
2023/12/04 11:08:59;;;;;;;16.30;10.00;;;;;;;-1.44;100.00;95741.25;7404599;19;20386;-96
2023/12/04 11:11:36;;;;;;;13.43;8.97;;;;;;;-2.31;100.00;95611.44;7402587;19;20390;-96
2023/12/04 11:14:08;;;;;;;10.83;8.70;;;;;;;-2.57;100.00;95548.66;7403792;19;20378;-94
2023/12/04 11:16:46;;;;;;;10.93;8.70;;;;;;;-1.96;100.00;95636.88;7405701;19;20378;-95